KDLS

Details ICAO KDLS
Name COLUMBIA GORGE RGNL THE DALLES MUNI
Region United States
Timezone America/Los_Angeles (UTC-8.0)
Plans Departing 4
Arriving 12
Stats Elevation 247 ft / 75 m (AMSL)
Location 45.619429° -121.168304°
Runways 2
Magnetic Variation 15.033° E
Sunrise 2017-12-14 15:39:17 UTC / 2017-12-14 07:39:17 Local
Sunset 2017-12-15 00:22:32 UTC / 2017-12-14 16:22:32 Local
Advertisement - Login to hide

Runways

ID Width Length Bearing (true) Bearing (mag) Surface Threshold Offset Overrun Length
07 100 ft / 30 m 4,635 ft / 1,413 m 87.98° 72.95° Asphalt 440 ft / 134 m 0 ft / 0 m
12 100 ft / 30 m 5,095 ft / 1,553 m 144.67° 129.64° Asphalt 200 ft / 61 m 0 ft / 0 m
25 100 ft / 30 m 4,635 ft / 1,413 m 267.99° 252.96° Asphalt 196 ft / 60 m 0 ft / 0 m
30 100 ft / 30 m 5,095 ft / 1,553 m 324.68° 309.65° Asphalt 0 ft / 0 m 0 ft / 0 m

Map

Weather


0- 5 10 15 20 25 30 35+ Temperature / ° C

Clouds and Precipitation
Forecast for 2017-12-14 18:00 UTC. Updated 18 minutes ago

Ground ~20,000 ft ~40,000 ft Winds

METAR

KDLS 141453Z AUTO 15007KT 10SM OVC019 01/M03 A3065 RMK AO2 SLP382 T00111033 50002

TAF

TAF KDLS 141120Z 1412/1512 10006KT P6SM OVC022 FM142100 08006KT P6SM BKN007 OVC015 FM150600 VRB06KT 4SM BR OVC007

Frequencies

Recorded 135.17 MHz ASOS
Unicom 123.00 MHz CTAF/UNICOM
Warning: Do not use this data for real-world aviation or navigation. No guarantee of current accuracy is given.